sensor_id;sensor_type;location;lat;lon;timestamp;pressure;altitude;pressure_sealevel;temperature;humidity
14120;BME280;7138;49.246;9.100;2023-03-22T00:02:01;98544.63;;;11.90;86.71
14120;BME280;7138;49.246;9.100;2023-03-22T00:04:29;98539.38;;;11.96;87.06
14120;BME280;7138;49.246;9.100;2023-03-22T00:06:55;98538.47;;;11.99;86.86
14120;BME280;7138;49.246;9.100;2023-03-22T00:09:21;98528.94;;;12.05;86.14
14120;BME280;7138;49.246;9.100;2023-03-22T00:11:47;98533.22;;;12.10;86.66
14120;BME280;7138;49.246;9.100;2023-03-22T00:14:16;98535.81;;;12.10;86.39
14120;BME280;7138;49.246;9.100;2023-03-22T00:16:41;98530.59;;;12.13;87.09
14120;BME280;7138;49.246;9.100;2023-03-22T00:19:07;98531.41;;;12.18;86.69
14120;BME280;7138;49.246;9.100;2023-03-22T00:21:35;98525.31;;;12.22;86.66
14120;BME280;7138;49.246;9.100;2023-03-22T00:24:00;98520.97;;;12.24;87.08
14120;BME280;7138;49.246;9.100;2023-03-22T00:26:26;98516.63;;;12.26;86.89
14120;BME280;7138;49.246;9.100;2023-03-22T00:28:52;98520.06;;;12.26;86.40
14120;BME280;7138;49.246;9.100;2023-03-22T00:31:18;98512.31;;;12.26;86.54
14120;BME280;7138;49.246;9.100;2023-03-22T00:33:44;98509.72;;;12.26;86.35
14120;BME280;7138;49.246;9.100;2023-03-22T00:36:11;98513.13;;;12.28;86.13
14120;BME280;7138;49.246;9.100;2023-03-22T00:38:39;98503.66;;;12.27;86.20
14120;BME280;7138;49.246;9.100;2023-03-22T00:41:09;98510.53;;;12.28;86.26
14120;BME280;7138;49.246;9.100;2023-03-22T00:43:36;98504.53;;;12.28;86.22
14120;BME280;7138;49.246;9.100;2023-03-22T00:46:02;98511.38;;;12.32;86.46
14120;BME280;7138;49.246;9.100;2023-03-22T00:48:29;98505.31;;;12.33;86.32
14120;BME280;7138;49.246;9.100;2023-03-22T00:50:54;98501.81;;;12.35;85.89
14120;BME280;7138;49.246;9.100;2023-03-22T00:53:21;98500.97;;;12.36;86.14
14120;BME280;7138;49.246;9.100;2023-03-22T00:55:48;98495.75;;;12.38;86.00
14120;BME280;7138;49.246;9.100;2023-03-22T00:58:14;98493.19;;;12.36;86.13
14120;BME280;7138;49.246;9.100;2023-03-22T01:00:39;98481.94;;;12.34;85.74
14120;BME280;7138;49.246;9.100;2023-03-22T01:03:05;98486.31;;;12.34;85.71
14120;BME280;7138;49.246;9.100;2023-03-22T01:05:32;98478.53;;;12.34;85.55
14120;BME280;7138;49.246;9.100;2023-03-22T01:07:59;98479.34;;;12.34;86.17
14120;BME280;7138;49.246;9.100;2023-03-22T01:10:27;98482.81;;;12.35;85.90
14120;BME280;7138;49.246;9.100;2023-03-22T01:12:55;98472.44;;;12.36;85.71
14120;BME280;7138;49.246;9.100;2023-03-22T01:15:21;98472.44;;;12.36;85.87
14120;BME280;7138;49.246;9.100;2023-03-22T01:17:47;98466.34;;;12.39;85.98
14120;BME280;7138;49.246;9.100;2023-03-22T01:20:13;98466.31;;;12.42;85.15
14120;BME280;7138;49.246;9.100;2023-03-22T01:22:39;98467.16;;;12.44;84.92
14120;BME280;7138;49.246;9.100;2023-03-22T01:25:07;98462.00;;;12.41;85.35
14120;BME280;7138;49.246;9.100;2023-03-22T01:27:33;98460.34;;;12.35;85.16
14120;BME280;7138;49.246;9.100;2023-03-22T01:30:00;98448.31;;;12.28;84.96
14120;BME280;7138;49.246;9.100;2023-03-22T01:32:26;98446.59;;;12.30;84.90
14120;BME280;7138;49.246;9.100;2023-03-22T01:34:52;98448.22;;;12.37;85.71
14120;BME280;7138;49.246;9.100;2023-03-22T01:37:18;98448.19;;;12.40;85.36
14120;BME280;7138;49.246;9.100;2023-03-22T01:39:43;98443.88;;;12.38;85.20
14120;BME280;7138;49.246;9.100;2023-03-22T01:42:13;98455.28;;;12.28;85.59
14120;BME280;7138;49.246;9.100;2023-03-22T01:44:42;98453.50;;;12.28;85.16
14120;BME280;7138;49.246;9.100;2023-03-22T01:47:10;98445.72;;;12.30;85.24
14120;BME280;7138;49.246;9.100;2023-03-22T01:49:38;98444.78;;;12.37;85.47
14120;BME280;7138;49.246;9.100;2023-03-22T01:52:08;98444.75;;;12.40;85.16
14120;BME280;7138;49.246;9.100;2023-03-22T01:54:40;98437.75;;;12.45;85.08
14120;BME280;7138;49.246;9.100;2023-03-22T01:57:08;98440.31;;;12.48;85.92
14120;BME280;7138;49.246;9.100;2023-03-22T01:59:34;98443.75;;;12.50;85.36
14120;BME280;7138;49.246;9.100;2023-03-22T02:02:02;98435.97;;;12.51;85.83
14120;BME280;7138;49.246;9.100;2023-03-22T02:04:34;98440.28;;;12.51;86.16
14120;BME280;7138;49.246;9.100;2023-03-22T02:07:05;98432.56;;;12.45;85.82
14120;BME280;7138;49.246;9.100;2023-03-22T02:09:35;98443.00;;;12.40;86.17
14120;BME280;7138;49.246;9.100;2023-03-22T02:12:18;98442.19;;;12.37;86.28
14120;BME280;7138;49.246;9.100;2023-03-22T02:15:07;98435.34;;;12.30;86.08
14120;BME280;7138;49.246;9.100;2023-03-22T02:17:46;98448.34;;;12.25;86.11
14120;BME280;7138;49.246;9.100;2023-03-22T02:21:05;98437.22;;;12.17;86.82
14120;BME280;7138;49.246;9.100;2023-03-22T02:24:35;98438.19;;;12.07;87.07
14120;BME280;7138;49.246;9.100;2023-03-22T02:27:26;98447.78;;;12.00;87.94
14120;BME280;7138;49.246;9.100;2023-03-22T02:30:12;98441.97;;;11.79;89.08
14120;BME280;7138;49.246;9.100;2023-03-22T02:33:19;98442.06;;;11.64;89.28
14120;BME280;7138;49.246;9.100;2023-03-22T02:36:32;98445.66;;;11.47;89.73
14120;BME280;7138;49.246;9.100;2023-03-22T02:39:15;98435.44;;;11.32;90.50
14120;BME280;7138;49.246;9.100;2023-03-22T02:42:03;98430.31;;;11.26;89.73
14120;BME280;7138;49.246;9.100;2023-03-22T02:44:40;98434.59;;;11.29;89.05
14120;BME280;7138;49.246;9.100;2023-03-22T02:47:12;98434.59;;;11.29;89.15
14120;BME280;7138;49.246;9.100;2023-03-22T02:49:54;98428.56;;;11.28;89.73
14120;BME280;7138;49.246;9.100;2023-03-22T02:52:31;98430.31;;;11.25;89.82
14120;BME280;7138;49.246;9.100;2023-03-22T02:55:09;98428.69;;;11.15;90.82
14120;BME280;7138;49.246;9.100;2023-03-22T02:57:43;98432.16;;;11.12;90.45
14120;BME280;7138;49.246;9.100;2023-03-22T03:00:15;98428.75;;;11.03;91.35
14120;BME280;7138;49.246;9.100;2023-03-22T03:02:48;98426.19;;;11.00;91.38
14120;BME280;7138;49.246;9.100;2023-03-22T03:05:18;98432.22;;;11.00;90.68
14120;BME280;7138;49.246;9.100;2023-03-22T03:07:49;98427.88;;;11.04;90.75
14120;BME280;7138;49.246;9.100;2023-03-22T03:10:19;98429.59;;;11.06;90.68
14120;BME280;7138;49.246;9.100;2023-03-22T03:12:46;98429.56;;;11.11;90.49
14120;BME280;7138;49.246;9.100;2023-03-22T03:15:16;98424.34;;;11.14;90.96
14120;BME280;7138;49.246;9.100;2023-03-22T03:18:04;98422.59;;;11.19;90.68
14120;BME280;7138;49.246;9.100;2023-03-22T03:20:48;98427.75;;;11.22;89.98
14120;BME280;7138;49.246;9.100;2023-03-22T03:23:29;98429.47;;;11.23;90.16
14120;BME280;7138;49.246;9.100;2023-03-22T03:26:06;98426.00;;;11.25;90.28
14120;BME280;7138;49.246;9.100;2023-03-22T03:28:46;98432.88;;;11.28;90.12
14120;BME280;7138;49.246;9.100;2023-03-22T03:31:29;98424.25;;;11.29;90.53
14120;BME280;7138;49.246;9.100;2023-03-22T03:34:01;98423.44;;;11.21;90.79
14120;BME280;7138;49.246;9.100;2023-03-22T03:36:35;98428.69;;;11.10;91.68
14120;BME280;7138;49.246;9.100;2023-03-22T03:39:09;98430.38;;;11.17;91.55
14120;BME280;7138;49.246;9.100;2023-03-22T03:41:39;98427.75;;;11.22;90.72
14120;BME280;7138;49.246;9.100;2023-03-22T03:44:07;98431.16;;;11.27;91.12
14120;BME280;7138;49.246;9.100;2023-03-22T03:46:33;98420.75;;;11.31;90.64
14120;BME280;7138;49.246;9.100;2023-03-22T03:49:01;98414.66;;;11.37;89.98
14120;BME280;7138;49.246;9.100;2023-03-22T03:51:28;98411.19;;;11.41;89.74
14120;BME280;7138;49.246;9.100;2023-03-22T03:53:54;98424.97;;;11.44;90.24
14120;BME280;7138;49.246;9.100;2023-03-22T03:56:20;98422.34;;;11.49;89.43
14120;BME280;7138;49.246;9.100;2023-03-22T03:58:47;98420.59;;;11.52;89.96
14120;BME280;7138;49.246;9.100;2023-03-22T04:01:13;98423.16;;;11.57;90.07
14120;BME280;7138;49.246;9.100;2023-03-22T04:03:39;98415.34;;;11.60;89.64
14120;BME280;7138;49.246;9.100;2023-03-22T04:06:05;98416.19;;;11.64;89.46
14120;BME280;7138;49.246;9.100;2023-03-22T04:08:33;98409.25;;;11.67;89.53
14120;BME280;7138;49.246;9.100;2023-03-22T04:10:59;98407.47;;;11.68;89.36
14120;BME280;7138;49.246;9.100;2023-03-22T04:13:25;98417.84;;;11.69;89.58
14120;BME280;7138;49.246;9.100;2023-03-22T04:15:55;98414.41;;;11.72;89.69
14120;BME280;7138;49.246;9.100;2023-03-22T04:18:22;98411.88;;;11.64;89.60
14120;BME280;7138;49.246;9.100;2023-03-22T04:20:49;98410.16;;;11.60;90.17
14120;BME280;7138;49.246;9.100;2023-03-22T04:23:18;98417.06;;;11.58;90.18
14120;BME280;7138;49.246;9.100;2023-03-22T04:25:47;98412.75;;;11.60;89.94
14120;BME280;7138;49.246;9.100;2023-03-22T04:28:15;98410.16;;;11.60;89.75
14120;BME280;7138;49.246;9.100;2023-03-22T04:30:42;98403.22;;;11.62;89.72
14120;BME280;7138;49.246;9.100;2023-03-22T04:33:11;98394.56;;;11.65;89.93
14120;BME280;7138;49.246;9.100;2023-03-22T04:35:37;98398.06;;;11.62;89.69
14120;BME280;7138;49.246;9.100;2023-03-22T04:38:03;98397.16;;;11.65;90.13
14120;BME280;7138;49.246;9.100;2023-03-22T04:40:29;98396.28;;;11.67;89.53
14120;BME280;7138;49.246;9.100;2023-03-22T04:42:59;98386.78;;;11.69;89.81
14120;BME280;7138;49.246;9.100;2023-03-22T04:45:28;98380.72;;;11.72;89.43
14120;BME280;7138;49.246;9.100;2023-03-22T04:47:56;98380.72;;;11.73;89.87
14120;BME280;7138;49.246;9.100;2023-03-22T04:50:24;98372.94;;;11.76;89.06
14120;BME280;7138;49.246;9.100;2023-03-22T04:52:52;98376.41;;;11.68;90.04
14120;BME280;7138;49.246;9.100;2023-03-22T04:55:18;98352.41;;;11.53;90.45
14120;BME280;7138;49.246;9.100;2023-03-22T04:57:44;98373.91;;;11.60;90.49
14120;BME280;7138;49.246;9.100;2023-03-22T05:00:11;98377.44;;;11.55;90.25
14120;BME280;7138;49.246;9.100;2023-03-22T05:02:37;98380.94;;;11.46;90.49
14120;BME280;7138;49.246;9.100;2023-03-22T05:05:06;98382.78;;;11.36;91.43
14120;BME280;7138;49.246;9.100;2023-03-22T05:07:33;98379.44;;;11.24;91.29
14120;BME280;7138;49.246;9.100;2023-03-22T05:09:59;98375.97;;;11.23;91.04
14120;BME280;7138;49.246;9.100;2023-03-22T05:12:24;98375.13;;;11.23;91.61
14120;BME280;7138;49.246;9.100;2023-03-22T05:14:51;98375.97;;;11.23;90.80
14120;BME280;7138;49.246;9.100;2023-03-22T05:17:17;98369.09;;;11.22;90.85
14120;BME280;7138;49.246;9.100;2023-03-22T05:19:43;98369.09;;;11.24;91.12
14120;BME280;7138;49.246;9.100;2023-03-22T05:22:09;98372.50;;;11.26;90.63
14120;BME280;7138;49.246;9.100;2023-03-22T05:24:37;98376.81;;;11.27;90.55
14120;BME280;7138;49.246;9.100;2023-03-22T05:27:03;98378.53;;;11.29;90.35
14120;BME280;7138;49.246;9.100;2023-03-22T05:29:30;98378.50;;;11.31;90.16
14120;BME280;7138;49.246;9.100;2023-03-22T05:32:01;98372.44;;;11.32;90.87
14120;BME280;7138;49.246;9.100;2023-03-22T05:34:27;98381.88;;;11.37;90.42
14120;BME280;7138;49.246;9.100;2023-03-22T05:37:00;98374.13;;;11.39;90.61
14120;BME280;7138;49.246;9.100;2023-03-22T05:39:26;98376.69;;;11.40;89.99
14120;BME280;7138;49.246;9.100;2023-03-22T05:41:53;98372.41;;;11.39;90.09
14120;BME280;7138;49.246;9.100;2023-03-22T05:44:19;98384.47;;;11.39;89.79
14120;BME280;7138;49.246;9.100;2023-03-22T05:46:44;98392.25;;;11.37;89.39
14120;BME280;7138;49.246;9.100;2023-03-22T05:49:10;98387.97;;;11.32;89.84
14120;BME280;7138;49.246;9.100;2023-03-22T05:51:36;98396.66;;;11.26;89.52
14120;BME280;7138;49.246;9.100;2023-03-22T05:54:06;98391.50;;;11.22;89.54
14120;BME280;7138;49.246;9.100;2023-03-22T05:56:33;98396.69;;;11.22;89.96
14120;BME280;7138;49.246;9.100;2023-03-22T05:59:01;98396.72;;;11.20;89.65
14120;BME280;7138;49.246;9.100;2023-03-22T06:01:27;98403.66;;;11.15;89.58
14120;BME280;7138;49.246;9.100;2023-03-22T06:03:53;98402.78;;;11.18;89.66
14120;BME280;7138;49.246;9.100;2023-03-22T06:06:19;98409.69;;;11.17;89.70
14120;BME280;7138;49.246;9.100;2023-03-22T06:08:44;98407.06;;;11.19;90.13
14120;BME280;7138;49.246;9.100;2023-03-22T06:11:10;98402.72;;;11.24;90.38
14120;BME280;7138;49.246;9.100;2023-03-22T06:13:37;98405.19;;;11.37;89.99
14120;BME280;7138;49.246;9.100;2023-03-22T06:16:05;98398.94;;;11.58;89.81
14120;BME280;7138;49.246;9.100;2023-03-22T06:18:31;98383.34;;;11.70;89.49
14120;BME280;7138;49.246;9.100;2023-03-22T06:20:58;98401.25;;;11.91;88.91
14120;BME280;7138;49.246;9.100;2023-03-22T06:23:24;98408.94;;;12.00;88.27
14120;BME280;7138;49.246;9.100;2023-03-22T06:25:50;98404.53;;;12.04;87.61
14120;BME280;7138;49.246;9.100;2023-03-22T06:28:16;98402.75;;;12.11;87.99
14120;BME280;7138;49.246;9.100;2023-03-22T06:30:42;98406.91;;;12.24;87.88
14120;BME280;7138;49.246;9.100;2023-03-22T06:33:09;98417.88;;;12.45;87.68
14120;BME280;7138;49.246;9.100;2023-03-22T06:35:35;98416.66;;;12.72;87.20
14120;BME280;7138;49.246;9.100;2023-03-22T06:38:01;98413.66;;;12.99;85.71
14120;BME280;7138;49.246;9.100;2023-03-22T06:40:27;98421.88;;;13.30;85.12
14120;BME280;7138;49.246;9.100;2023-03-22T06:42:53;98409.19;;;13.64;84.52
14120;BME280;7138;49.246;9.100;2023-03-22T06:45:20;98417.28;;;13.93;83.57
14120;BME280;7138;49.246;9.100;2023-03-22T06:47:46;98409.94;;;14.15;82.76
14120;BME280;7138;49.246;9.100;2023-03-22T06:50:13;98407.88;;;14.34;81.84
14120;BME280;7138;49.246;9.100;2023-03-22T06:52:40;98412.84;;;14.44;81.28
14120;BME280;7138;49.246;9.100;2023-03-22T06:55:07;98401.50;;;14.48;81.70
14120;BME280;7138;49.246;9.100;2023-03-22T06:57:33;98406.44;;;14.60;81.31
14120;BME280;7138;49.246;9.100;2023-03-22T06:59:59;98410.56;;;14.70;80.85
14120;BME280;7138;49.246;9.100;2023-03-22T07:02:25;98414.78;;;14.74;79.86
14120;BME280;7138;49.246;9.100;2023-03-22T07:04:51;98413.03;;;14.75;79.67
14120;BME280;7138;49.246;9.100;2023-03-22T07:07:18;98404.16;;;14.85;79.26
14120;BME280;7138;49.246;9.100;2023-03-22T07:09:44;98410.94;;;14.92;79.12
14120;BME280;7138;49.246;9.100;2023-03-22T07:12:13;98417.63;;;15.02;79.01
14120;BME280;7138;49.246;9.100;2023-03-22T07:14:39;98414.75;;;15.14;78.24
14120;BME280;7138;49.246;9.100;2023-03-22T07:17:04;98417.03;;;15.28;78.18
14120;BME280;7138;49.246;9.100;2023-03-22T07:19:30;98413.97;;;15.48;77.74
14120;BME280;7138;49.246;9.100;2023-03-22T07:21:57;98413.34;;;15.72;78.00
14120;BME280;7138;49.246;9.100;2023-03-22T07:24:24;98418.81;;;15.95;77.43
14120;BME280;7138;49.246;9.100;2023-03-22T07:26:50;98422.63;;;16.14;76.42
14120;BME280;7138;49.246;9.100;2023-03-22T07:29:15;98414.25;;;16.34;75.67
14120;BME280;7138;49.246;9.100;2023-03-22T07:31:41;98420.69;;;16.52;74.82
14120;BME280;7138;49.246;9.100;2023-03-22T07:34:07;98427.59;;;16.56;74.09
14120;BME280;7138;49.246;9.100;2023-03-22T07:36:33;98423.16;;;16.58;74.19
14120;BME280;7138;49.246;9.100;2023-03-22T07:39:00;98423.25;;;16.55;74.00
14120;BME280;7138;49.246;9.100;2023-03-22T07:41:27;98425.84;;;16.56;74.40
14120;BME280;7138;49.246;9.100;2023-03-22T07:43:54;98416.19;;;16.58;74.48
14120;BME280;7138;49.246;9.100;2023-03-22T07:46:20;98425.66;;;16.62;73.42
14120;BME280;7138;49.246;9.100;2023-03-22T07:48:46;98423.94;;;16.61;73.26
14120;BME280;7138;49.246;9.100;2023-03-22T07:51:12;98425.56;;;16.65;73.24
14120;BME280;7138;49.246;9.100;2023-03-22T07:53:38;98426.31;;;16.69;72.97
14120;BME280;7138;49.246;9.100;2023-03-22T07:56:05;98417.59;;;16.70;73.51
14120;BME280;7138;49.246;9.100;2023-03-22T07:58:32;98420.81;;;16.78;73.46
14120;BME280;7138;49.246;9.100;2023-03-22T08:01:03;98426.91;;;16.78;73.48
14120;BME280;7138;49.246;9.100;2023-03-22T08:03:30;98422.25;;;16.88;73.68
14120;BME280;7138;49.246;9.100;2023-03-22T08:05:59;98417.50;;;17.01;73.48
14120;BME280;7138;49.246;9.100;2023-03-22T08:08:28;98419.56;;;17.19;74.43
14120;BME280;7138;49.246;9.100;2023-03-22T08:10:54;98425.34;;;17.28;72.44
14120;BME280;7138;49.246;9.100;2023-03-22T08:13:20;98420.63;;;17.39;72.47
14120;BME280;7138;49.246;9.100;2023-03-22T08:15:47;98424.69;;;17.48;72.60
14120;BME280;7138;49.246;9.100;2023-03-22T08:18:13;98419.16;;;17.59;72.65
14120;BME280;7138;49.246;9.100;2023-03-22T08:20:38;98416.16;;;17.69;72.55
14120;BME280;7138;49.246;9.100;2023-03-22T08:23:04;98421.47;;;17.68;71.53
14120;BME280;7138;49.246;9.100;2023-03-22T08:25:32;98419.63;;;17.70;71.96
14120;BME280;7138;49.246;9.100;2023-03-22T08:27:58;98430.75;;;17.76;71.89
14120;BME280;7138;49.246;9.100;2023-03-22T08:30:24;98422.00;;;17.77;71.24
14120;BME280;7138;49.246;9.100;2023-03-22T08:32:51;98417.75;;;17.75;72.34
14120;BME280;7138;49.246;9.100;2023-03-22T08:35:17;98420.94;;;17.83;72.65
14120;BME280;7138;49.246;9.100;2023-03-22T08:37:43;98417.19;;;17.65;69.92
14120;BME280;7138;49.246;9.100;2023-03-22T08:40:10;98412.44;;;17.50;69.62
14120;BME280;7138;49.246;9.100;2023-03-22T08:42:36;98427.38;;;17.20;69.19
14120;BME280;7138;49.246;9.100;2023-03-22T08:45:03;98434.19;;;16.67;69.11
14120;BME280;7138;49.246;9.100;2023-03-22T08:47:29;98435.06;;;16.68;71.05
14120;BME280;7138;49.246;9.100;2023-03-22T08:49:56;98430.69;;;16.68;71.86
14120;BME280;7138;49.246;9.100;2023-03-22T08:52:25;98431.59;;;16.67;70.83
14120;BME280;7138;49.246;9.100;2023-03-22T08:54:51;98428.72;;;16.46;70.29
14120;BME280;7138;49.246;9.100;2023-03-22T08:57:19;98431.94;;;16.54;71.27
14120;BME280;7138;49.246;9.100;2023-03-22T08:59:46;98429.59;;;16.45;71.07
14120;BME280;7138;49.246;9.100;2023-03-22T09:02:13;98425.97;;;16.50;72.43
14120;BME280;7138;49.246;9.100;2023-03-22T09:04:39;98421.34;;;16.60;72.74
14120;BME280;7138;49.246;9.100;2023-03-22T09:07:06;98424.53;;;16.71;73.10
14120;BME280;7138;49.246;9.100;2023-03-22T09:09:32;98412.94;;;16.79;72.63
14120;BME280;7138;49.246;9.100;2023-03-22T09:11:58;98410.22;;;16.84;71.61
14120;BME280;7138;49.246;9.100;2023-03-22T09:14:23;98415.34;;;16.87;71.69
14120;BME280;7138;49.246;9.100;2023-03-22T09:16:49;98408.59;;;16.49;71.06
14120;BME280;7138;49.246;9.100;2023-03-22T09:19:16;98409.63;;;16.74;73.02
14120;BME280;7138;49.246;9.100;2023-03-22T09:21:42;98399.88;;;16.81;72.46
14120;BME280;7138;49.246;9.100;2023-03-22T09:24:09;98397.94;;;16.86;72.62
14120;BME280;7138;49.246;9.100;2023-03-22T09:26:35;98390.50;;;17.02;72.58
14120;BME280;7138;49.246;9.100;2023-03-22T09:29:01;98396.13;;;17.16;72.64
14120;BME280;7138;49.246;9.100;2023-03-22T09:31:27;98394.78;;;17.30;70.92
14120;BME280;7138;49.246;9.100;2023-03-22T09:33:53;98382.53;;;17.32;70.81
14120;BME280;7138;49.246;9.100;2023-03-22T09:36:19;98369.31;;;17.37;69.08
14120;BME280;7138;49.246;9.100;2023-03-22T09:38:46;98375.50;;;17.61;71.58
14120;BME280;7138;49.246;9.100;2023-03-22T09:41:21;98377.22;;;17.62;69.12
14120;BME280;7138;49.246;9.100;2023-03-22T09:43:52;98384.94;;;17.65;68.95
14120;BME280;7138;49.246;9.100;2023-03-22T09:46:28;98384.28;;;17.60;68.47
14120;BME280;7138;49.246;9.100;2023-03-22T09:48:56;98385.53;;;17.46;68.21
14120;BME280;7138;49.246;9.100;2023-03-22T09:51:35;98382.66;;;17.54;68.99
14120;BME280;7138;49.246;9.100;2023-03-22T09:54:02;98391.28;;;17.31;68.67
14120;BME280;7138;49.246;9.100;2023-03-22T09:56:31;98384.03;;;17.39;69.44
14120;BME280;7138;49.246;9.100;2023-03-22T09:59:11;98388.78;;;17.27;68.22
14120;BME280;7138;49.246;9.100;2023-03-22T10:01:44;98382.34;;;17.38;70.56
14120;BME280;7138;49.246;9.100;2023-03-22T10:04:31;98376.47;;;17.58;70.12
14120;BME280;7138;49.246;9.100;2023-03-22T10:07:12;98377.31;;;17.59;68.08
14120;BME280;7138;49.246;9.100;2023-03-22T10:09:48;98368.00;;;17.50;68.47
14120;BME280;7138;49.246;9.100;2023-03-22T10:12:27;98359.69;;;17.64;69.03
14120;BME280;7138;49.246;9.100;2023-03-22T10:15:04;98358.81;;;17.65;68.50
14120;BME280;7138;49.246;9.100;2023-03-22T10:17:32;98354.88;;;17.78;69.94
14120;BME280;7138;49.246;9.100;2023-03-22T10:20:06;98359.47;;;18.19;70.11
14120;BME280;7138;49.246;9.100;2023-03-22T10:22:39;98348.31;;;18.14;69.31
14120;BME280;7138;49.246;9.100;2023-03-22T10:25:08;98347.47;;;18.14;69.69
14120;BME280;7138;49.246;9.100;2023-03-22T10:27:36;98348.94;;;18.21;65.87
14120;BME280;7138;49.246;9.100;2023-03-22T10:30:11;98347.28;;;18.18;66.12
14120;BME280;7138;49.246;9.100;2023-03-22T10:32:49;98334.66;;;18.29;66.75
14120;BME280;7138;49.246;9.100;2023-03-22T10:35:18;98333.56;;;18.58;67.51
14120;BME280;7138;49.246;9.100;2023-03-22T10:37:47;98331.16;;;18.53;66.23
14120;BME280;7138;49.246;9.100;2023-03-22T10:40:19;98328.56;;;18.52;65.28
14120;BME280;7138;49.246;9.100;2023-03-22T10:42:54;98327.31;;;18.39;65.96
14120;BME280;7138;49.246;9.100;2023-03-22T10:45:23;98331.69;;;18.38;66.44
14120;BME280;7138;49.246;9.100;2023-03-22T10:47:56;98333.88;;;18.02;64.36
14120;BME280;7138;49.246;9.100;2023-03-22T10:50:29;98333.84;;;18.04;65.32
14120;BME280;7138;49.246;9.100;2023-03-22T10:53:04;98333.41;;;18.16;66.73
14120;BME280;7138;49.246;9.100;2023-03-22T10:55:31;98326.28;;;18.43;67.17
14120;BME280;7138;49.246;9.100;2023-03-22T10:58:11;98323.16;;;18.57;65.23
14120;BME280;7138;49.246;9.100;2023-03-22T11:00:43;98331.19;;;18.29;64.12
14120;BME280;7138;49.246;9.100;2023-03-22T11:03:27;98330.09;;;18.34;64.37
14120;BME280;7138;49.246;9.100;2023-03-22T11:06:02;98323.75;;;18.40;65.41
14120;BME280;7138;49.246;9.100;2023-03-22T11:08:39;98334.34;;;18.37;65.07
14120;BME280;7138;49.246;9.100;2023-03-22T11:11:06;98323.53;;;18.46;65.44
14120;BME280;7138;49.246;9.100;2023-03-22T11:13:41;98330.88;;;18.36;64.71
14120;BME280;7138;49.246;9.100;2023-03-22T11:16:07;98320.56;;;18.57;64.71
14120;BME280;7138;49.246;9.100;2023-03-22T11:18:34;98314.84;;;18.69;64.26
14120;BME280;7138;49.246;9.100;2023-03-22T11:21:06;98312.22;;;18.69;63.52
14120;BME280;7138;49.246;9.100;2023-03-22T11:23:36;98314.34;;;18.81;64.17
14120;BME280;7138;49.246;9.100;2023-03-22T11:26:08;98291.75;;;18.78;63.94
14120;BME280;7138;49.246;9.100;2023-03-22T11:28:41;98311.97;;;18.96;63.93
14120;BME280;7138;49.246;9.100;2023-03-22T11:31:13;98305.78;;;18.97;64.99
14120;BME280;7138;49.246;9.100;2023-03-22T11:33:54;98293.78;;;18.92;63.93
14120;BME280;7138;49.246;9.100;2023-03-22T11:36:20;98294.94;;;19.06;64.51
14120;BME280;7138;49.246;9.100;2023-03-22T11:38:46;98299.31;;;19.06;63.56
14120;BME280;7138;49.246;9.100;2023-03-22T11:41:21;98298.13;;;19.15;62.50
14120;BME280;7138;49.246;9.100;2023-03-22T11:43:52;98302.00;;;19.26;62.60
14120;BME280;7138;49.246;9.100;2023-03-22T11:46:19;98291.75;;;19.20;62.72
14120;BME280;7138;49.246;9.100;2023-03-22T11:48:48;98288.50;;;19.35;64.19
14120;BME280;7138;49.246;9.100;2023-03-22T11:51:17;98290.75;;;19.44;62.85
14120;BME280;7138;49.246;9.100;2023-03-22T11:53:55;98290.94;;;19.60;64.24
14120;BME280;7138;49.246;9.100;2023-03-22T11:56:28;98279.59;;;19.59;62.93
14120;BME280;7138;49.246;9.100;2023-03-22T11:59:02;98279.47;;;19.62;63.06
14120;BME280;7138;49.246;9.100;2023-03-22T12:01:37;98271.81;;;19.77;63.57
14120;BME280;7138;49.246;9.100;2023-03-22T12:04:10;98278.78;;;19.78;61.50
14120;BME280;7138;49.246;9.100;2023-03-22T12:06:40;98270.00;;;19.79;61.45
14120;BME280;7138;49.246;9.100;2023-03-22T12:09:20;98271.78;;;19.58;61.06
14120;BME280;7138;49.246;9.100;2023-03-22T12:11:52;98261.00;;;19.45;61.67
14120;BME280;7138;49.246;9.100;2023-03-22T12:14:25;98265.94;;;19.72;62.99
14120;BME280;7138;49.246;9.100;2023-03-22T12:16:59;98262.53;;;19.70;61.40
14120;BME280;7138;49.246;9.100;2023-03-22T12:19:42;98262.53;;;19.49;60.38
14120;BME280;7138;49.246;9.100;2023-03-22T12:22:14;98266.63;;;19.56;61.71
14120;BME280;7138;49.246;9.100;2023-03-22T12:24:41;98263.53;;;19.47;61.24
14120;BME280;7138;49.246;9.100;2023-03-22T12:27:16;98262.50;;;19.51;61.18
14120;BME280;7138;49.246;9.100;2023-03-22T12:29:51;98260.88;;;19.48;61.95
14120;BME280;7138;49.246;9.100;2023-03-22T12:32:24;98256.63;;;19.64;62.63
14120;BME280;7138;49.246;9.100;2023-03-22T12:34:52;98241.47;;;19.71;60.62
14120;BME280;7138;49.246;9.100;2023-03-22T12:37:24;98244.69;;;19.96;62.15
14120;BME280;7138;49.246;9.100;2023-03-22T12:39:57;98242.41;;;20.07;61.34
14120;BME280;7138;49.246;9.100;2023-03-22T12:42:31;98236.28;;;20.27;61.41
14120;BME280;7138;49.246;9.100;2023-03-22T12:45:04;98238.31;;;20.21;60.18
14120;BME280;7138;49.246;9.100;2023-03-22T12:47:40;98239.38;;;19.98;60.14
14120;BME280;7138;49.246;9.100;2023-03-22T12:50:13;98233.06;;;20.02;61.52
14120;BME280;7138;49.246;9.100;2023-03-22T12:52:44;98213.69;;;20.04;61.23
14120;BME280;7138;49.246;9.100;2023-03-22T12:55:20;98218.09;;;20.04;60.48
14120;BME280;7138;49.246;9.100;2023-03-22T12:57:48;98213.13;;;20.16;61.13
14120;BME280;7138;49.246;9.100;2023-03-22T13:00:20;98205.69;;;20.26;60.62
14120;BME280;7138;49.246;9.100;2023-03-22T13:02:55;98208.78;;;20.34;61.32
14120;BME280;7138;49.246;9.100;2023-03-22T13:05:28;98196.41;;;20.55;60.97
14120;BME280;7138;49.246;9.100;2023-03-22T13:07:55;98182.53;;;20.70;61.11
14120;BME280;7138;49.246;9.100;2023-03-22T13:10:58;98197.25;;;20.91;60.12
14120;BME280;7138;49.246;9.100;2023-03-22T13:13:48;98197.38;;;20.88;59.98
14120;BME280;7138;49.246;9.100;2023-03-22T13:16:41;98183.84;;;20.96;59.40
14120;BME280;7138;49.246;9.100;2023-03-22T13:19:32;98183.47;;;21.03;59.92
14120;BME280;7138;49.246;9.100;2023-03-22T13:22:27;98185.09;;;21.06;59.19
14120;BME280;7138;49.246;9.100;2023-03-22T13:25:10;98177.38;;;21.20;60.18
14120;BME280;7138;49.246;9.100;2023-03-22T13:27:42;98185.41;;;21.17;59.70